OIAG  Aghajari  Airport

Aghajari,, Iran

Add Bookmark
ICAO OIAG
Type Airport
Status Operational
Latitude
30° 44' 39" N
30.744400
Longitude
49° 40' 37" E
49.677200
Local (GMT +4.5 ) UTC
Apr 30, 2016 09:24 pm Apr 30, 2016 16:54
Sunrise-Sunset Local UTC
Begin Civil Twilight 06:00 am 01:30
Sunrise 06:26 am 01:56
Sunset 07:50 pm 15:20
End Civil Twilight 08:16 pm 15:46
VFR
VFR
MVFR
MVFR
IFR
IFR
LIFR
LIFR
Unknown
Unavailable

Current Weather

METAR Observed VFR
OIAG 301600Z 28002KT 9999 FEW035TCU SCT100 29/11 Q1012 Sat, Apr 30, 2016 @ 16:00 UTC
(54 Minutes ago)
Visual Flight Rules
Wind Visibility Clouds Conditions
280° at 2 knots (4 kph) 10 km or more
  • Few at 3,500 ft AGL
  • Scattered at 10,000 ft AGL
  • No significant weather
Temperatures Readings Precipitation
Current Temp
29°C
84°F
Dewpoint
11°C
52°F
Humidity 33%
Altimeter 29.88" Hg
Sea Level Pressure 1,012 mb
Field Elevation
29 m
95 ft
None Recorded

Additional weather within a 92.6km radius of OIAG

Map ICAO Location
OIAM 54.4km W/SW (248°)
VFR
VFR
MVFR
MVFR
IFR
IFR
LIFR
LIFR
Unknown
Unavailable
-
-

CheckWX.com is intended as a tool to help pilots better visualize weather data. It is not intended as a substitute for an official weather briefing obtained from a Flight Service Station. CheckWX.com does not meet the FAA requirements for an official pre-flight weather briefing. Therefore, it's important that pilots still call and obtain an official FSS pre-flight weather briefing.

© 2007-2016 CheckWX.com
16:54:25 UTC